This is the latest recevied weather packets stored in our database for station/object KVDF. If no packets are shown the sender has not sent any weather packets the latest 1 day(s).
| Time | Temp. | Humidity | Pressure | Rain* | Wind** | Luminosity | Snow |
|---|---|---|---|---|---|---|---|
| 1778040341 | 22.78° C | 64% | 1016.6 hPa | - | 1.79 m/s, 120° | - | - |
| 1778039619 | 23.89° C | 57% | 1016.6 hPa | - | 1.79 m/s, 110° | - | - |
| 1778039026 | 23.89° C | 57% | 1016.6 hPa | - | 1.79 m/s, 110° | - | - |
| 1778038425 | 23.89° C | 60% | 1016.6 hPa | - | 3.58 m/s, 120° | - | - |
| 1778037824 | 23.89° C | 60% | 1016.6 hPa | - | 3.58 m/s, 120° | - | - |
| 1778037220 | 25° C | 57% | 1016.3 hPa | - | 3.58 m/s, 120° | - | - |
| 1778036618 | 25° C | 57% | 1016.3 hPa | - | 3.58 m/s, 120° | - | - |
| 1778036019 | 25° C | 57% | 1016.3 hPa | - | 3.58 m/s, 120° | - | - |
| 1778035419 | 25° C | 57% | 1016.3 hPa | - | 3.58 m/s, 120° | - | - |
| 1778034818 | 23.89° C | 73% | 1015.9 hPa | - | 0 m/s | - | - |
| 1778034221 | 23.89° C | 73% | 1015.9 hPa | - | 0 m/s | - | - |
| 1778033621 | 22.78° C | 78% | 1015.9 hPa | - | 0 m/s | - | - |
| 1778033021 | 22.78° C | 78% | 1015.9 hPa | - | 0 m/s | - | - |
| 1778032421 | 21.67° C | 83% | 1015.6 hPa | - | 1.79 m/s, 60° | - | - |
| 1778031820 | 21.67° C | 83% | 1015.6 hPa | - | 1.79 m/s, 60° | - | - |
| 1778031221 | 22.78° C | 78% | 1015.2 hPa | - | 0 m/s | - | - |
| 1778030619 | 22.78° C | 78% | 1015.2 hPa | - | 0 m/s | - | - |
| 1778030022 | 23.89° C | 73% | 1014.9 hPa | - | 1.34 m/s, 330° | - | - |
| 1778029419 | 23.89° C | 73% | 1014.9 hPa | - | 1.34 m/s, 330° | - | - |
| 1778028822 | 25° C | 69% | 1014.6 hPa | - | 2.24 m/s, 350° | - | - |
| 1778028220 | 25° C | 69% | 1014.6 hPa | - | 2.24 m/s, 350° | - | - |
| 1778027619 | 25.56° C | 65% | 1014.6 hPa | - | 1.79 m/s, 340° | - | - |
| 1778027019 | 25.56° C | 65% | 1014.6 hPa | - | 1.79 m/s, 340° | - | - |
| 1778026425 | 25.56° C | 65% | 1014.2 hPa | - | 2.24 m/s, 330° | - | - |
| 1778025822 | 25.56° C | 65% | 1014.2 hPa | - | 2.24 m/s, 330° | - | - |
* Rain since midnight (hover to see other rain measurements)
** Current wind speed in m/s (hover to see current wind gust speed)